createdAt,value
2023-05-12T00:00:57.053Z,13.06
2023-05-12T00:03:30.232Z,13.01
2023-05-12T00:06:04.501Z,12.99
2023-05-12T00:08:37.303Z,12.97
2023-05-12T00:11:10.196Z,12.96
2023-05-12T00:13:43.154Z,12.90
2023-05-12T00:16:18.956Z,12.87
2023-05-12T00:18:52.308Z,12.82
2023-05-12T00:21:25.380Z,12.79
2023-05-12T00:23:58.258Z,12.74
2023-05-12T00:26:31.181Z,12.70
2023-05-12T00:29:04.168Z,12.65
2023-05-12T00:31:38.567Z,12.62
2023-05-12T00:34:11.639Z,12.61
2023-05-12T00:36:44.508Z,12.57
2023-05-12T00:39:17.338Z,12.53
2023-05-12T00:41:54.949Z,12.49
2023-05-12T00:44:27.863Z,12.46
2023-05-12T00:47:02.412Z,12.42
2023-05-12T00:49:35.296Z,12.39
2023-05-12T00:52:08.167Z,12.35
2023-05-12T00:54:43.366Z,12.31
2023-05-12T00:57:16.423Z,12.27
2023-05-12T00:59:49.519Z,12.22
2023-05-12T01:02:24.422Z,12.20
2023-05-12T01:04:57.598Z,12.18
2023-05-12T01:07:33.364Z,12.14
2023-05-12T01:10:18.549Z,12.12
2023-05-12T01:12:51.624Z,12.08
2023-05-12T01:15:25.404Z,12.05
2023-05-12T01:18:03.836Z,12.04
2023-05-12T01:20:37.342Z,11.99
2023-05-12T01:23:10.832Z,11.94
2023-05-12T01:25:45.606Z,11.91
2023-05-12T01:28:21.340Z,11.90
2023-05-12T01:30:55.876Z,11.89
2023-05-12T01:33:29.272Z,11.87
2023-05-12T01:36:02.271Z,11.84
2023-05-12T01:38:35.900Z,11.79
2023-05-12T01:41:08.961Z,11.76
2023-05-12T01:43:43.561Z,11.71
2023-05-12T01:46:16.836Z,11.68
2023-05-12T01:48:50.042Z,11.66
2023-05-12T01:51:22.966Z,11.61
2023-05-12T01:53:55.970Z,11.56
2023-05-12T01:56:29.840Z,11.53
2023-05-12T01:59:04.128Z,11.49
2023-05-12T02:01:37.157Z,11.47
2023-05-12T02:04:10.583Z,11.45
2023-05-12T02:06:43.812Z,11.41
2023-05-12T02:09:16.784Z,11.40
2023-05-12T02:11:52.401Z,11.36
2023-05-12T02:14:26.652Z,11.35
2023-05-12T02:16:59.876Z,11.30
2023-05-12T02:19:34.300Z,11.28
2023-05-12T02:22:07.208Z,11.26
2023-05-12T02:24:40.050Z,11.22
2023-05-12T02:27:13.694Z,11.21
2023-05-12T02:29:48.062Z,11.17
2023-05-12T02:32:22.593Z,11.13
2023-05-12T02:34:56.551Z,11.11
2023-05-12T02:37:29.744Z,11.10
2023-05-12T02:40:02.656Z,11.06
2023-05-12T02:42:38.300Z,11.03
2023-05-12T02:45:13.639Z,11.01
2023-05-12T02:47:46.654Z,11.00
2023-05-12T02:50:20.802Z,10.98
2023-05-12T02:52:53.792Z,10.95
2023-05-12T02:55:27.256Z,10.94
2023-05-12T02:58:00.110Z,10.91
2023-05-12T03:00:34.446Z,10.88
2023-05-12T03:03:07.762Z,10.87
2023-05-12T03:05:40.953Z,10.86
2023-05-12T03:08:13.864Z,10.86
2023-05-12T03:10:46.757Z,10.83
2023-05-12T03:13:20.389Z,10.83
2023-05-12T03:15:55.775Z,10.82
2023-05-12T03:18:29.055Z,10.82
2023-05-12T03:21:02.026Z,10.81
2023-05-12T03:23:35.086Z,10.81
2023-05-12T03:26:07.916Z,10.81
2023-05-12T03:28:41.005Z,10.81
2023-05-12T03:31:15.203Z,10.80
2023-05-12T03:33:48.174Z,10.84
2023-05-12T03:36:21.042Z,10.84
2023-05-12T03:38:53.893Z,10.87
2023-05-12T03:41:26.795Z,10.89
2023-05-12T03:44:00.003Z,10.92
2023-05-12T03:46:34.343Z,10.95
2023-05-12T03:49:07.278Z,10.98
2023-05-12T03:51:40.088Z,11.00
2023-05-12T03:54:13.054Z,11.04
2023-05-12T03:56:47.888Z,11.07
2023-05-12T03:59:23.914Z,11.13
2023-05-12T04:01:58.565Z,11.19
2023-05-12T04:04:31.450Z,11.26
2023-05-12T04:07:05.282Z,11.32
2023-05-12T04:09:38.122Z,11.38
2023-05-12T04:12:11.567Z,11.45
2023-05-12T04:14:44.422Z,11.54
2023-05-12T04:17:19.165Z,11.62
2023-05-12T04:19:52.749Z,11.71
2023-05-12T04:22:25.949Z,11.79
2023-05-12T04:24:59.280Z,12.00
2023-05-12T04:27:32.216Z,11.98
2023-05-12T04:30:05.621Z,12.05
2023-05-12T04:32:43.318Z,12.14
2023-05-12T04:35:17.360Z,12.26
2023-05-12T04:37:50.340Z,12.35
2023-05-12T04:40:23.540Z,12.44
2023-05-12T04:42:56.785Z,12.54
2023-05-12T04:45:30.470Z,12.77
2023-05-12T04:48:05.196Z,12.78
2023-05-12T04:50:38.325Z,12.90
2023-05-12T04:53:11.574Z,13.01
2023-05-12T04:55:46.104Z,13.20
2023-05-12T04:58:19.137Z,13.19
2023-05-12T05:00:53.989Z,13.25
2023-05-12T05:03:28.490Z,13.32
2023-05-12T05:06:01.568Z,13.39
2023-05-12T05:08:34.662Z,13.48
2023-05-12T05:11:10.256Z,13.57
2023-05-12T05:13:43.301Z,13.70
2023-05-12T05:16:16.358Z,13.84
2023-05-12T05:18:50.898Z,13.96
2023-05-12T05:21:23.960Z,14.08
2023-05-12T05:23:56.928Z,14.21
2023-05-12T05:26:29.937Z,14.32
2023-05-12T05:29:02.897Z,14.42
2023-05-12T05:31:36.000Z,14.54
2023-05-12T05:34:10.480Z,14.66
2023-05-12T05:36:43.448Z,14.77
2023-05-12T05:39:16.301Z,14.89
2023-05-12T05:41:49.160Z,15.02
2023-05-12T05:44:22.204Z,15.17
2023-05-12T05:46:55.429Z,15.31
2023-05-12T05:49:32.055Z,15.43
2023-05-12T05:52:06.996Z,15.59
2023-05-12T05:54:40.492Z,15.70
2023-05-12T05:57:13.423Z,15.82
2023-05-12T05:59:46.448Z,15.94
2023-05-12T06:02:23.231Z,16.07
2023-05-12T06:04:57.657Z,16.17
2023-05-12T06:07:30.531Z,16.30
2023-05-12T06:10:04.262Z,16.45
2023-05-12T06:12:37.312Z,16.58
2023-05-12T06:15:11.230Z,16.70
2023-05-12T06:17:44.104Z,16.82
2023-05-12T06:20:18.456Z,16.94
2023-05-12T06:22:51.265Z,17.07
2023-05-12T06:25:24.235Z,17.16
2023-05-12T06:27:57.146Z,17.31
2023-05-12T06:30:29.993Z,17.43
2023-05-12T06:33:03.015Z,17.50
2023-05-12T06:35:37.601Z,17.65
2023-05-12T06:38:11.907Z,17.77
2023-05-12T06:40:44.799Z,17.88
2023-05-12T06:43:17.797Z,17.99
2023-05-12T06:45:51.660Z,18.06
2023-05-12T06:48:24.582Z,18.13
2023-05-12T06:50:58.923Z,18.25
2023-05-12T06:53:37.644Z,18.40
2023-05-12T06:56:11.451Z,18.52
2023-05-12T06:58:44.626Z,18.68
2023-05-12T07:01:17.528Z,18.81
2023-05-12T07:03:50.464Z,18.91
2023-05-12T07:06:25.297Z,18.96
2023-05-12T07:08:58.500Z,19.01
2023-05-12T07:11:31.720Z,19.15
2023-05-12T07:14:04.596Z,19.28
2023-05-12T07:16:37.850Z,19.37
2023-05-12T07:19:10.832Z,19.45
2023-05-12T07:21:45.160Z,19.54
2023-05-12T07:24:18.084Z,19.69
2023-05-12T07:26:50.943Z,19.79
2023-05-12T07:29:23.801Z,19.92
2023-05-12T07:31:57.006Z,19.97
2023-05-12T07:34:29.892Z,20.07
2023-05-12T07:37:06.424Z,20.12
2023-05-12T07:39:39.646Z,20.27
2023-05-12T07:42:12.540Z,20.47
2023-05-12T07:44:46.198Z,20.67
2023-05-12T07:47:19.067Z,20.70
2023-05-12T07:49:51.938Z,20.75
2023-05-12T07:52:26.234Z,20.85
2023-05-12T07:54:59.135Z,20.97
2023-05-12T07:57:32.011Z,21.09
2023-05-12T08:00:05.589Z,21.13
2023-05-12T08:02:47.209Z,21.16
2023-05-12T08:05:20.884Z,21.27
2023-05-12T08:07:55.350Z,21.38
2023-05-12T08:10:31.774Z,21.60
2023-05-12T08:13:04.678Z,21.80
2023-05-12T08:15:37.867Z,22.02
2023-05-12T08:18:11.068Z,22.25
2023-05-12T08:20:44.031Z,22.51
2023-05-12T08:23:18.827Z,22.75
2023-05-12T08:25:51.677Z,23.03
2023-05-12T08:28:24.590Z,23.39
2023-05-12T08:30:57.707Z,23.76
2023-05-12T08:33:30.614Z,24.21
2023-05-12T08:36:03.825Z,24.87
2023-05-12T08:38:37.905Z,25.78
2023-05-12T08:41:17.915Z,26.96
2023-05-12T08:43:51.969Z,28.25
2023-05-12T08:46:26.786Z,29.29
2023-05-12T08:49:01.888Z,30.45
2023-05-12T08:51:39.224Z,31.31
2023-05-12T08:54:14.704Z,32.14
2023-05-12T08:59:24.821Z,33.28
2023-05-12T09:01:59.942Z,33.98
2023-05-12T09:04:33.287Z,34.59
2023-05-12T09:07:07.307Z,35.13
2023-05-12T09:09:43.810Z,35.72
2023-05-12T09:12:19.621Z,36.42
2023-05-12T09:14:59.733Z,36.83
2023-05-12T09:17:32.681Z,37.16
2023-05-12T09:20:09.881Z,37.72
2023-05-12T09:22:48.156Z,37.93
2023-05-12T09:25:23.138Z,38.06
2023-05-12T09:27:57.712Z,38.06
2023-05-12T09:30:31.876Z,38.12
2023-05-12T09:33:08.575Z,38.20
2023-05-12T09:35:42.612Z,38.34
2023-05-12T09:38:16.116Z,38.46
2023-05-12T09:40:50.438Z,38.39
2023-05-12T09:43:23.535Z,38.44
2023-05-12T09:45:56.573Z,38.63
2023-05-12T09:48:31.391Z,38.87
2023-05-12T09:51:04.390Z,38.90
2023-05-12T09:53:44.341Z,38.64
2023-05-12T09:56:22.272Z,38.09
2023-05-12T09:58:56.998Z,37.93
2023-05-12T10:01:30.283Z,37.72
2023-05-12T10:04:07.030Z,37.74
2023-05-12T10:06:43.247Z,36.38
2023-05-12T10:09:21.589Z,36.32
2023-05-12T10:11:56.577Z,36.37
2023-05-12T10:14:30.326Z,36.19
2023-05-12T10:17:03.615Z,36.07
2023-05-12T10:19:36.804Z,36.17
2023-05-12T10:22:11.681Z,36.32
2023-05-12T10:24:46.957Z,36.30
2023-05-12T10:27:22.974Z,36.38
2023-05-12T10:29:56.811Z,36.18
2023-05-12T10:32:29.874Z,36.08
2023-05-12T10:35:13.191Z,35.74
2023-05-12T10:37:48.228Z,35.09
2023-05-12T10:40:27.060Z,34.33
2023-05-12T10:43:01.962Z,33.55
2023-05-12T10:45:38.439Z,32.91
2023-05-12T10:48:16.604Z,32.38
2023-05-12T10:50:54.465Z,31.92
2023-05-12T10:53:41.443Z,31.35
2023-05-12T10:56:26.388Z,30.73
2023-05-12T10:59:20.860Z,30.10
2023-05-12T11:02:03.674Z,29.51
2023-05-12T11:04:42.259Z,28.95
2023-05-12T11:07:17.203Z,28.49
2023-05-12T11:09:58.494Z,28.25
2023-05-12T11:12:33.401Z,28.05
2023-05-12T11:15:08.905Z,27.79
2023-05-12T11:17:42.101Z,27.41
2023-05-12T11:20:24.100Z,27.13
2023-05-12T11:22:57.330Z,26.92
2023-05-12T11:25:30.357Z,26.71
2023-05-12T11:28:03.634Z,26.44
2023-05-12T11:30:38.014Z,26.19
2023-05-12T11:33:10.959Z,25.99
2023-05-12T11:35:43.689Z,25.86
2023-05-12T11:38:17.424Z,25.62
2023-05-12T11:40:50.417Z,25.50
2023-05-12T11:43:23.493Z,25.33
2023-05-12T11:45:57.624Z,25.19
2023-05-12T11:48:35.993Z,25.05
2023-05-12T11:51:09.182Z,24.98
2023-05-12T11:53:42.068Z,24.95
2023-05-12T11:56:19.487Z,24.82
2023-05-12T11:58:56.880Z,24.64
2023-05-12T12:01:31.477Z,24.48
2023-05-12T12:04:04.430Z,24.32
2023-05-12T12:06:45.112Z,24.17
2023-05-12T12:09:18.031Z,24.07
2023-05-12T12:11:50.928Z,23.96
2023-05-12T12:14:23.813Z,23.88
2023-05-12T12:16:58.341Z,23.80
2023-05-12T12:19:31.638Z,23.67
2023-05-12T12:22:04.758Z,23.61
2023-05-12T12:24:37.670Z,23.54
2023-05-12T12:27:10.523Z,23.47
2023-05-12T12:29:43.413Z,23.37
2023-05-12T12:32:17.756Z,23.30
2023-05-12T12:34:50.650Z,23.28
2023-05-12T12:37:23.476Z,23.25
2023-05-12T12:39:56.354Z,23.24
2023-05-12T12:42:29.285Z,23.18
2023-05-12T12:45:02.516Z,23.18
2023-05-12T12:47:36.881Z,23.21
2023-05-12T12:50:10.888Z,23.07
2023-05-12T12:52:43.794Z,23.08
2023-05-12T12:55:16.676Z,23.07
2023-05-12T12:57:49.536Z,23.00
2023-05-12T13:00:23.551Z,22.96
2023-05-12T13:02:58.137Z,22.92
2023-05-12T13:05:31.125Z,22.87
2023-05-12T13:08:04.058Z,22.83
2023-05-12T13:10:37.474Z,22.73
2023-05-12T13:13:11.942Z,22.60
2023-05-12T13:15:45.061Z,22.48
2023-05-12T13:18:19.277Z,22.42
2023-05-12T13:20:52.593Z,22.39
2023-05-12T13:23:25.257Z,22.45
2023-05-12T13:25:58.956Z,22.32
2023-05-12T13:28:31.876Z,22.25
2023-05-12T13:31:04.931Z,22.16
2023-05-12T13:33:39.339Z,22.06
2023-05-12T13:36:13.366Z,22.04
2023-05-12T13:38:49.081Z,22.02
2023-05-12T13:41:21.978Z,22.01
2023-05-12T13:43:54.841Z,21.97
2023-05-12T13:46:27.737Z,21.88
2023-05-12T13:49:02.115Z,21.76
2023-05-12T13:51:34.940Z,21.71
2023-05-12T13:54:07.858Z,21.67
2023-05-12T13:56:40.771Z,21.72
2023-05-12T13:59:14.211Z,21.74
2023-05-12T14:02:35.943Z,21.81
2023-05-12T14:05:10.898Z,21.81
2023-05-12T14:07:43.834Z,21.77
2023-05-12T14:10:16.734Z,21.71
2023-05-12T14:12:49.954Z,21.66
2023-05-12T14:18:47.857Z,21.62
2023-05-12T14:25:30.778Z,21.65
2023-05-12T14:28:03.795Z,21.64
2023-05-12T14:30:37.480Z,21.61
2023-05-12T14:33:10.543Z,21.58
2023-05-12T14:35:52.848Z,21.59
2023-05-12T14:38:32.489Z,21.61
2023-05-12T14:41:08.675Z,21.61
2023-05-12T14:43:41.563Z,21.63
2023-05-12T14:46:14.522Z,21.65
2023-05-12T14:48:48.879Z,21.63
2023-05-12T14:51:21.846Z,21.58
2023-05-12T14:53:54.696Z,21.50
2023-05-12T14:56:29.264Z,21.40
2023-05-12T14:59:02.176Z,21.33
2023-05-12T15:01:35.218Z,21.29
2023-05-12T15:04:08.427Z,21.26
2023-05-12T15:06:41.382Z,21.23
2023-05-12T15:09:14.291Z,21.23
2023-05-12T15:11:49.500Z,21.20
2023-05-12T15:16:55.238Z,21.16
2023-05-12T15:19:28.158Z,21.13
2023-05-12T15:22:01.065Z,21.12
2023-05-12T15:24:34.160Z,21.13
2023-05-12T15:27:08.353Z,21.15
2023-05-12T15:29:42.248Z,21.15
2023-05-12T15:32:15.761Z,21.15
2023-05-12T15:34:48.818Z,21.16
2023-05-12T15:37:21.858Z,21.17
2023-05-12T15:39:54.751Z,21.15
2023-05-12T15:42:33.174Z,21.10
2023-05-12T15:45:07.629Z,20.99
2023-05-12T15:47:40.924Z,20.92
2023-05-12T15:50:16.275Z,20.84
2023-05-12T15:52:49.700Z,20.79
2023-05-12T15:55:22.797Z,20.83
2023-05-12T15:57:57.473Z,20.70
2023-05-12T16:00:30.446Z,20.70
2023-05-12T16:03:04.043Z,20.72
2023-05-12T16:05:38.557Z,20.75
2023-05-12T16:08:11.993Z,20.77
2023-05-12T16:10:45.028Z,20.80
2023-05-12T16:13:19.359Z,20.83
2023-05-12T16:15:52.282Z,20.83
2023-05-12T16:18:25.240Z,20.80
2023-05-12T16:20:58.580Z,20.72
2023-05-12T16:23:31.587Z,20.62
2023-05-12T16:26:04.564Z,20.50
2023-05-12T16:28:38.879Z,20.39
2023-05-12T16:31:12.860Z,20.30
2023-05-12T16:33:45.828Z,20.23
2023-05-12T16:36:19.771Z,20.15
2023-05-12T16:38:52.929Z,20.08
2023-05-12T16:41:27.956Z,20.03
2023-05-12T16:44:03.128Z,19.99
2023-05-12T16:46:40.792Z,19.95
2023-05-12T16:49:14.581Z,19.93
2023-05-12T16:51:47.826Z,20.02
2023-05-12T16:54:20.711Z,19.91
2023-05-12T16:56:53.600Z,19.89
2023-05-12T16:59:27.970Z,19.89
2023-05-12T17:02:02.187Z,19.89
2023-05-12T17:04:35.310Z,19.88
2023-05-12T17:07:08.275Z,19.87
2023-05-12T17:09:41.388Z,19.85
2023-05-12T17:12:14.380Z,19.84
2023-05-12T17:14:59.343Z,19.84
2023-05-12T17:17:37.223Z,19.84
2023-05-12T17:20:11.674Z,19.83
2023-05-12T17:22:47.283Z,19.79
2023-05-12T17:25:20.644Z,19.76
2023-05-12T17:27:53.779Z,19.74
2023-05-12T17:30:28.229Z,19.71
2023-05-12T17:33:01.799Z,19.69
2023-05-12T17:35:34.817Z,19.64
2023-05-12T17:38:07.969Z,19.59
2023-05-12T17:40:41.031Z,19.53
2023-05-12T17:43:15.843Z,19.47
2023-05-12T17:45:50.168Z,19.39
2023-05-12T17:48:23.789Z,19.33
2023-05-12T17:50:56.717Z,19.26
2023-05-12T17:53:29.745Z,19.18
2023-05-12T17:56:02.719Z,19.12
2023-05-12T17:58:35.605Z,19.04
2023-05-12T18:01:10.062Z,18.96
2023-05-12T18:03:43.470Z,18.90
2023-05-12T18:06:16.187Z,18.93
2023-05-12T18:08:49.110Z,18.77
2023-05-12T18:11:21.991Z,18.68
2023-05-12T18:13:54.933Z,18.60
2023-05-12T18:16:29.802Z,18.52
2023-05-12T18:19:03.589Z,18.46
2023-05-12T18:21:36.790Z,18.37
2023-05-12T18:24:09.879Z,18.30
2023-05-12T18:26:43.247Z,18.23
2023-05-12T18:29:16.155Z,18.16
2023-05-12T18:31:50.561Z,18.07
2023-05-12T18:34:23.524Z,18.02
2023-05-12T18:36:56.801Z,17.96
2023-05-12T18:39:29.706Z,17.89
2023-05-12T18:42:02.632Z,17.83
2023-05-12T18:44:35.514Z,17.77
2023-05-12T18:47:10.028Z,17.70
2023-05-12T18:49:43.029Z,17.64
2023-05-12T18:52:15.875Z,17.58
2023-05-12T18:54:49.802Z,17.51
2023-05-12T18:57:22.897Z,17.46
2023-05-12T18:59:55.827Z,17.38
2023-05-12T19:02:31.664Z,17.32
2023-05-12T19:05:05.134Z,17.25
2023-05-12T19:07:37.919Z,17.28
2023-05-12T19:10:11.213Z,17.14
2023-05-12T19:12:44.249Z,17.05
2023-05-12T19:15:17.773Z,16.99
2023-05-12T19:17:51.901Z,17.05
2023-05-12T19:20:24.755Z,17.00
2023-05-12T19:22:59.707Z,16.82
2023-05-12T19:25:32.722Z,16.75
2023-05-12T19:28:10.328Z,16.68
2023-05-12T19:30:43.478Z,16.63
2023-05-12T19:33:17.976Z,16.58
2023-05-12T19:35:50.984Z,16.52
2023-05-12T19:38:23.954Z,16.48
2023-05-12T19:40:56.889Z,16.43
2023-05-12T19:43:29.721Z,16.39
2023-05-12T19:46:02.710Z,16.34
2023-05-12T19:48:36.972Z,16.28
2023-05-12T19:51:09.784Z,16.23
2023-05-12T19:53:43.460Z,16.19
2023-05-12T19:56:16.117Z,16.26
2023-05-12T19:58:49.080Z,16.11
2023-05-12T20:01:22.114Z,16.05
2023-05-12T20:03:56.956Z,16.00
2023-05-12T20:06:29.849Z,15.95
2023-05-12T20:09:02.695Z,15.91
2023-05-12T20:11:35.570Z,15.87
2023-05-12T20:14:08.671Z,15.82
2023-05-12T20:16:41.619Z,15.76
2023-05-12T20:19:17.069Z,15.72
2023-05-12T20:21:49.988Z,15.67
2023-05-12T20:24:23.210Z,15.61
2023-05-12T20:26:56.591Z,15.57
2023-05-12T20:29:30.279Z,15.61
2023-05-12T20:32:03.398Z,15.49
2023-05-12T20:34:37.708Z,15.42
2023-05-12T20:37:10.578Z,15.36
2023-05-12T20:39:46.404Z,15.31
2023-05-12T20:42:19.290Z,15.25
2023-05-12T20:44:52.180Z,15.21
2023-05-12T20:47:25.256Z,15.15
2023-05-12T20:50:00.811Z,15.10
2023-05-12T20:52:33.867Z,15.06
2023-05-12T20:55:08.207Z,15.01
2023-05-12T20:57:41.347Z,14.95
2023-05-12T21:00:15.173Z,14.92
2023-05-12T21:02:51.981Z,14.87
2023-05-12T21:05:26.405Z,14.83
2023-05-12T21:07:59.869Z,14.79
2023-05-12T21:10:34.658Z,14.76
2023-05-12T21:13:07.573Z,14.71
2023-05-12T21:15:40.444Z,14.68
2023-05-12T21:18:13.415Z,14.63
2023-05-12T21:20:47.801Z,14.59
2023-05-12T21:23:20.651Z,14.57
2023-05-12T21:25:53.845Z,14.52
2023-05-12T21:28:27.377Z,14.49
2023-05-12T21:31:00.271Z,14.45
2023-05-12T21:33:33.758Z,14.42
2023-05-12T21:36:09.828Z,14.39
2023-05-12T21:38:42.764Z,14.36
2023-05-12T21:41:15.692Z,14.32
2023-05-12T21:43:48.494Z,14.28
2023-05-12T21:46:21.422Z,14.23
2023-05-12T21:48:54.350Z,14.19
2023-05-12T21:51:29.217Z,14.15
2023-05-12T21:54:02.248Z,14.11
2023-05-12T21:56:35.212Z,14.09
2023-05-12T21:59:08.048Z,14.06
2023-05-12T22:01:40.957Z,14.02
2023-05-12T22:04:13.903Z,13.98
2023-05-12T22:06:48.359Z,13.96
2023-05-12T22:09:21.927Z,13.93
2023-05-12T22:11:54.847Z,13.91
2023-05-12T22:14:27.807Z,13.87
2023-05-12T22:17:02.464Z,13.82
2023-05-12T22:19:35.530Z,13.79
2023-05-12T22:22:09.785Z,13.76
2023-05-12T22:24:43.821Z,13.73
2023-05-12T22:27:21.102Z,13.70
2023-05-12T22:29:55.088Z,13.67
2023-05-12T22:32:27.938Z,13.63
2023-05-12T22:35:00.795Z,13.61
2023-05-12T22:37:35.028Z,13.58
2023-05-12T22:40:09.253Z,13.54
2023-05-12T22:42:42.052Z,13.51
2023-05-12T22:45:14.959Z,13.49
2023-05-12T22:47:47.820Z,13.44
2023-05-12T22:50:21.245Z,13.42
2023-05-12T22:52:57.384Z,13.39
2023-05-12T22:55:31.383Z,13.35
2023-05-12T22:58:04.539Z,13.32
2023-05-12T23:00:37.477Z,13.27
2023-05-12T23:03:10.514Z,13.24
2023-05-12T23:05:43.497Z,13.20
2023-05-12T23:08:17.773Z,13.16
2023-05-12T23:10:50.765Z,13.15
2023-05-12T23:13:23.603Z,13.12
2023-05-12T23:15:56.453Z,13.08
2023-05-12T23:18:29.316Z,13.02
2023-05-12T23:21:02.264Z,12.98
2023-05-12T23:23:37.099Z,12.92
2023-05-12T23:26:10.352Z,12.90
2023-05-12T23:28:43.202Z,12.87
2023-05-12T23:31:19.288Z,12.83
2023-05-12T23:33:52.255Z,12.79
2023-05-12T23:36:25.116Z,12.75
2023-05-12T23:38:59.329Z,12.69
2023-05-12T23:41:33.984Z,12.68
2023-05-12T23:44:06.849Z,12.64
2023-05-12T23:46:39.714Z,12.62
2023-05-12T23:49:12.544Z,12.60
2023-05-12T23:51:45.436Z,12.56
2023-05-12T23:54:19.574Z,12.54
2023-05-12T23:56:52.463Z,12.51
2023-05-12T23:59:25.497Z,12.49
